Fairbank, Illinois
Current Conditions -  °F | °C
As of 12:52 PM on Monday 22 Dec 2014 (Local Time) from KMLI Reporting Station
Light Rain Light Rain  
Wind Chill: -2°   Ceiling: 600
Heat Index:   Visibility: 2.5mi
Dew Point:   Wind: 13mph
Humidity: 93%   Direction: 110°ESE
Pressure: 29.62"   Gusts: NA
Location:  41.4828°N, 90.1801°W
Report Text: KMLI 221852Z 11011KT 2 1/2SM -RA BR OVC006 02/01 A2962 RMK AO2 SLP036 P0007 T00220011
Loading
Personal Weather Stations






























Interactive Weather Map New forecast layout! Learn more

10-Day Weather Forecast

Advertisements
Track Severe Weather on mobile